sensor_id;sensor_type;location;lat;lon;timestamp;P1;durP1;ratioP1;P2;durP2;ratioP2
17741;SDS011;8993;51.822;-2.268;2023-08-06T00:03:07;3.80;;;2.20;;
17741;SDS011;8993;51.822;-2.268;2023-08-06T00:08:12;4.55;;;2.40;;
17741;SDS011;8993;51.822;-2.268;2023-08-06T00:13:16;5.95;;;2.36;;
17741;SDS011;8993;51.822;-2.268;2023-08-06T00:18:21;4.74;;;2.29;;
17741;SDS011;8993;51.822;-2.268;2023-08-06T00:23:25;6.81;;;2.94;;
17741;SDS011;8993;51.822;-2.268;2023-08-06T00:28:29;7.87;;;3.36;;
17741;SDS011;8993;51.822;-2.268;2023-08-06T00:33:34;5.18;;;2.50;;
17741;SDS011;8993;51.822;-2.268;2023-08-06T00:38:38;6.22;;;3.11;;
17741;SDS011;8993;51.822;-2.268;2023-08-06T00:43:42;7.02;;;3.05;;
17741;SDS011;8993;51.822;-2.268;2023-08-06T00:48:48;6.64;;;2.67;;
17741;SDS011;8993;51.822;-2.268;2023-08-06T00:53:58;6.15;;;2.67;;
17741;SDS011;8993;51.822;-2.268;2023-08-06T00:59:02;7.08;;;2.79;;
17741;SDS011;8993;51.822;-2.268;2023-08-06T01:04:06;4.26;;;2.48;;
17741;SDS011;8993;51.822;-2.268;2023-08-06T01:09:14;4.86;;;2.41;;
17741;SDS011;8993;51.822;-2.268;2023-08-06T01:14:16;6.09;;;2.58;;
17741;SDS011;8993;51.822;-2.268;2023-08-06T01:19:27;6.54;;;2.51;;
17741;SDS011;8993;51.822;-2.268;2023-08-06T01:24:21;7.84;;;2.87;;
17741;SDS011;8993;51.822;-2.268;2023-08-06T01:29:28;7.17;;;3.11;;
17741;SDS011;8993;51.822;-2.268;2023-08-06T01:34:31;6.77;;;3.24;;
17741;SDS011;8993;51.822;-2.268;2023-08-06T01:39:34;6.65;;;2.82;;
17741;SDS011;8993;51.822;-2.268;2023-08-06T01:44:39;7.52;;;3.51;;
17741;SDS011;8993;51.822;-2.268;2023-08-06T01:49:43;6.21;;;3.00;;
17741;SDS011;8993;51.822;-2.268;2023-08-06T01:54:47;5.28;;;2.80;;
17741;SDS011;8993;51.822;-2.268;2023-08-06T01:59:51;7.63;;;3.23;;
17741;SDS011;8993;51.822;-2.268;2023-08-06T02:04:55;7.04;;;3.29;;
17741;SDS011;8993;51.822;-2.268;2023-08-06T02:10:00;7.91;;;3.35;;
17741;SDS011;8993;51.822;-2.268;2023-08-06T02:15:04;5.79;;;2.99;;
17741;SDS011;8993;51.822;-2.268;2023-08-06T02:20:09;5.95;;;2.97;;
17741;SDS011;8993;51.822;-2.268;2023-08-06T02:25:13;6.17;;;2.73;;
17741;SDS011;8993;51.822;-2.268;2023-08-06T02:30:18;6.22;;;2.95;;
17741;SDS011;8993;51.822;-2.268;2023-08-06T02:35:22;6.87;;;2.56;;
17741;SDS011;8993;51.822;-2.268;2023-08-06T02:40:27;8.53;;;2.39;;
17741;SDS011;8993;51.822;-2.268;2023-08-06T02:45:31;5.57;;;2.23;;
17741;SDS011;8993;51.822;-2.268;2023-08-06T02:50:38;5.19;;;2.10;;
17741;SDS011;8993;51.822;-2.268;2023-08-06T02:55:44;4.81;;;2.16;;
17741;SDS011;8993;51.822;-2.268;2023-08-06T03:00:43;3.42;;;1.94;;
17741;SDS011;8993;51.822;-2.268;2023-08-06T03:05:51;4.47;;;1.98;;
17741;SDS011;8993;51.822;-2.268;2023-08-06T03:10:52;3.38;;;1.73;;
17741;SDS011;8993;51.822;-2.268;2023-08-06T03:15:57;3.87;;;1.72;;
17741;SDS011;8993;51.822;-2.268;2023-08-06T03:21:01;3.74;;;1.80;;
17741;SDS011;8993;51.822;-2.268;2023-08-06T03:26:05;4.85;;;2.01;;
17741;SDS011;8993;51.822;-2.268;2023-08-06T03:31:09;5.76;;;2.16;;
17741;SDS011;8993;51.822;-2.268;2023-08-06T03:36:13;5.80;;;2.11;;
17741;SDS011;8993;51.822;-2.268;2023-08-06T03:41:19;5.06;;;2.11;;
17741;SDS011;8993;51.822;-2.268;2023-08-06T03:46:23;5.96;;;2.06;;
17741;SDS011;8993;51.822;-2.268;2023-08-06T03:51:27;4.18;;;2.01;;
17741;SDS011;8993;51.822;-2.268;2023-08-06T03:56:32;5.06;;;2.11;;
17741;SDS011;8993;51.822;-2.268;2023-08-06T04:01:36;5.64;;;2.27;;
17741;SDS011;8993;51.822;-2.268;2023-08-06T04:06:41;6.55;;;2.76;;
17741;SDS011;8993;51.822;-2.268;2023-08-06T04:11:45;7.20;;;2.83;;
17741;SDS011;8993;51.822;-2.268;2023-08-06T04:16:50;8.09;;;2.84;;
17741;SDS011;8993;51.822;-2.268;2023-08-06T04:21:54;7.48;;;2.52;;
17741;SDS011;8993;51.822;-2.268;2023-08-06T04:27:00;5.41;;;2.35;;
17741;SDS011;8993;51.822;-2.268;2023-08-06T04:32:05;6.02;;;2.64;;
17741;SDS011;8993;51.822;-2.268;2023-08-06T04:37:08;9.25;;;3.07;;
17741;SDS011;8993;51.822;-2.268;2023-08-06T04:42:12;5.06;;;2.43;;
17741;SDS011;8993;51.822;-2.268;2023-08-06T04:47:17;7.53;;;2.48;;
17741;SDS011;8993;51.822;-2.268;2023-08-06T04:52:21;7.63;;;2.28;;
17741;SDS011;8993;51.822;-2.268;2023-08-06T04:57:26;5.58;;;2.01;;
17741;SDS011;8993;51.822;-2.268;2023-08-06T05:02:29;5.69;;;2.16;;
17741;SDS011;8993;51.822;-2.268;2023-08-06T05:07:33;5.58;;;2.08;;
17741;SDS011;8993;51.822;-2.268;2023-08-06T05:12:38;5.84;;;2.70;;
17741;SDS011;8993;51.822;-2.268;2023-08-06T05:17:42;7.19;;;2.82;;
17741;SDS011;8993;51.822;-2.268;2023-08-06T05:22:46;6.70;;;3.14;;
17741;SDS011;8993;51.822;-2.268;2023-08-06T05:27:50;5.29;;;2.19;;
17741;SDS011;8993;51.822;-2.268;2023-08-06T05:32:55;8.21;;;2.60;;
17741;SDS011;8993;51.822;-2.268;2023-08-06T05:37:59;5.05;;;2.09;;
17741;SDS011;8993;51.822;-2.268;2023-08-06T05:43:04;7.12;;;2.50;;
17741;SDS011;8993;51.822;-2.268;2023-08-06T05:48:09;4.78;;;1.93;;
17741;SDS011;8993;51.822;-2.268;2023-08-06T05:53:13;5.16;;;1.93;;
17741;SDS011;8993;51.822;-2.268;2023-08-06T05:58:17;4.40;;;1.98;;
17741;SDS011;8993;51.822;-2.268;2023-08-06T06:03:21;3.94;;;1.99;;
17741;SDS011;8993;51.822;-2.268;2023-08-06T06:08:26;4.21;;;2.10;;
17741;SDS011;8993;51.822;-2.268;2023-08-06T06:13:30;5.24;;;2.15;;
17741;SDS011;8993;51.822;-2.268;2023-08-06T06:18:34;4.20;;;2.03;;
17741;SDS011;8993;51.822;-2.268;2023-08-06T06:23:39;5.29;;;2.34;;
17741;SDS011;8993;51.822;-2.268;2023-08-06T06:28:43;8.53;;;2.90;;
17741;SDS011;8993;51.822;-2.268;2023-08-06T06:33:48;8.28;;;2.61;;
17741;SDS011;8993;51.822;-2.268;2023-08-06T06:38:52;6.07;;;2.21;;
17741;SDS011;8993;51.822;-2.268;2023-08-06T06:43:56;4.57;;;1.59;;
17741;SDS011;8993;51.822;-2.268;2023-08-06T06:49:01;4.80;;;1.45;;
17741;SDS011;8993;51.822;-2.268;2023-08-06T06:54:05;4.44;;;1.36;;
17741;SDS011;8993;51.822;-2.268;2023-08-06T06:59:09;4.65;;;1.27;;
17741;SDS011;8993;51.822;-2.268;2023-08-06T07:04:14;2.88;;;1.19;;
17741;SDS011;8993;51.822;-2.268;2023-08-06T07:09:21;4.76;;;1.09;;
17741;SDS011;8993;51.822;-2.268;2023-08-06T07:14:26;3.86;;;0.96;;
17741;SDS011;8993;51.822;-2.268;2023-08-06T07:19:31;2.99;;;0.92;;
17741;SDS011;8993;51.822;-2.268;2023-08-06T07:24:35;3.08;;;0.89;;
17741;SDS011;8993;51.822;-2.268;2023-08-06T07:29:39;3.07;;;0.94;;
17741;SDS011;8993;51.822;-2.268;2023-08-06T07:34:47;3.03;;;0.87;;
17741;SDS011;8993;51.822;-2.268;2023-08-06T07:39:52;3.40;;;0.79;;
17741;SDS011;8993;51.822;-2.268;2023-08-06T07:44:57;2.58;;;0.77;;
17741;SDS011;8993;51.822;-2.268;2023-08-06T07:50:01;1.89;;;0.59;;
17741;SDS011;8993;51.822;-2.268;2023-08-06T07:55:05;2.31;;;0.67;;
17741;SDS011;8993;51.822;-2.268;2023-08-06T08:00:10;1.38;;;0.56;;
17741;SDS011;8993;51.822;-2.268;2023-08-06T08:05:15;2.76;;;0.53;;
17741;SDS011;8993;51.822;-2.268;2023-08-06T08:10:20;1.62;;;0.46;;
17741;SDS011;8993;51.822;-2.268;2023-08-06T08:15:24;1.79;;;0.42;;
17741;SDS011;8993;51.822;-2.268;2023-08-06T08:20:29;1.90;;;0.46;;
17741;SDS011;8993;51.822;-2.268;2023-08-06T08:25:33;2.65;;;0.45;;
17741;SDS011;8993;51.822;-2.268;2023-08-06T08:30:38;2.58;;;0.42;;
17741;SDS011;8993;51.822;-2.268;2023-08-06T08:35:42;1.79;;;0.42;;
17741;SDS011;8993;51.822;-2.268;2023-08-06T08:40:47;1.64;;;0.46;;
17741;SDS011;8993;51.822;-2.268;2023-08-06T08:45:52;1.42;;;0.41;;
17741;SDS011;8993;51.822;-2.268;2023-08-06T08:50:56;1.54;;;0.46;;
17741;SDS011;8993;51.822;-2.268;2023-08-06T08:56:00;1.60;;;0.38;;
17741;SDS011;8993;51.822;-2.268;2023-08-06T09:01:05;0.96;;;0.41;;
17741;SDS011;8993;51.822;-2.268;2023-08-06T09:06:10;2.15;;;0.36;;
17741;SDS011;8993;51.822;-2.268;2023-08-06T09:11:15;1.87;;;0.38;;
17741;SDS011;8993;51.822;-2.268;2023-08-06T09:16:19;1.67;;;0.35;;
17741;SDS011;8993;51.822;-2.268;2023-08-06T09:21:28;1.57;;;0.33;;
17741;SDS011;8993;51.822;-2.268;2023-08-06T09:26:33;1.48;;;0.38;;
17741;SDS011;8993;51.822;-2.268;2023-08-06T09:31:40;1.47;;;0.39;;
17741;SDS011;8993;51.822;-2.268;2023-08-06T09:36:42;1.95;;;0.31;;
17741;SDS011;8993;51.822;-2.268;2023-08-06T09:41:46;1.02;;;0.30;;
17741;SDS011;8993;51.822;-2.268;2023-08-06T09:46:51;2.21;;;0.30;;
17741;SDS011;8993;51.822;-2.268;2023-08-06T09:52:02;1.09;;;0.26;;
17741;SDS011;8993;51.822;-2.268;2023-08-06T09:56:57;1.47;;;0.34;;
17741;SDS011;8993;51.822;-2.268;2023-08-06T10:02:02;0.84;;;0.27;;
17741;SDS011;8993;51.822;-2.268;2023-08-06T10:07:06;1.11;;;0.22;;
17741;SDS011;8993;51.822;-2.268;2023-08-06T10:12:11;0.83;;;0.24;;
17741;SDS011;8993;51.822;-2.268;2023-08-06T10:17:15;1.05;;;0.21;;
17741;SDS011;8993;51.822;-2.268;2023-08-06T10:22:20;1.01;;;0.22;;
17741;SDS011;8993;51.822;-2.268;2023-08-06T10:27:28;2.02;;;0.22;;
17741;SDS011;8993;51.822;-2.268;2023-08-06T10:32:46;0.86;;;0.25;;
17741;SDS011;8993;51.822;-2.268;2023-08-06T10:37:35;0.66;;;0.20;;
17741;SDS011;8993;51.822;-2.268;2023-08-06T10:42:38;1.45;;;0.20;;
17741;SDS011;8993;51.822;-2.268;2023-08-06T10:47:42;1.63;;;0.25;;
17741;SDS011;8993;51.822;-2.268;2023-08-06T10:52:47;0.85;;;0.20;;
17741;SDS011;8993;51.822;-2.268;2023-08-06T10:57:51;1.25;;;0.18;;
17741;SDS011;8993;51.822;-2.268;2023-08-06T11:02:55;0.71;;;0.21;;
17741;SDS011;8993;51.822;-2.268;2023-08-06T11:08:00;1.41;;;0.20;;
17741;SDS011;8993;51.822;-2.268;2023-08-06T11:13:04;0.63;;;0.16;;
17741;SDS011;8993;51.822;-2.268;2023-08-06T11:18:16;0.86;;;0.22;;
17741;SDS011;8993;51.822;-2.268;2023-08-06T11:23:10;1.07;;;0.20;;
17741;SDS011;8993;51.822;-2.268;2023-08-06T11:28:15;0.61;;;0.20;;
17741;SDS011;8993;51.822;-2.268;2023-08-06T11:33:20;0.59;;;0.16;;
17741;SDS011;8993;51.822;-2.268;2023-08-06T11:38:24;0.90;;;0.20;;
17741;SDS011;8993;51.822;-2.268;2023-08-06T11:43:30;0.44;;;0.20;;
17741;SDS011;8993;51.822;-2.268;2023-08-06T11:48:45;0.64;;;0.20;;
17741;SDS011;8993;51.822;-2.268;2023-08-06T11:53:37;1.09;;;0.23;;
17741;SDS011;8993;51.822;-2.268;2023-08-06T11:58:42;1.66;;;0.25;;
17741;SDS011;8993;51.822;-2.268;2023-08-06T12:03:46;0.86;;;0.16;;
17741;SDS011;8993;51.822;-2.268;2023-08-06T12:08:51;0.85;;;0.20;;
17741;SDS011;8993;51.822;-2.268;2023-08-06T12:13:55;0.58;;;0.20;;
17741;SDS011;8993;51.822;-2.268;2023-08-06T12:19:00;0.90;;;0.19;;
17741;SDS011;8993;51.822;-2.268;2023-08-06T12:24:04;1.57;;;0.23;;
17741;SDS011;8993;51.822;-2.268;2023-08-06T12:29:09;0.66;;;0.12;;
17741;SDS011;8993;51.822;-2.268;2023-08-06T12:34:13;0.69;;;0.19;;
17741;SDS011;8993;51.822;-2.268;2023-08-06T12:39:19;0.46;;;0.17;;
17741;SDS011;8993;51.822;-2.268;2023-08-06T12:44:23;1.11;;;0.18;;
17741;SDS011;8993;51.822;-2.268;2023-08-06T12:49:28;1.08;;;0.36;;
17741;SDS011;8993;51.822;-2.268;2023-08-06T12:54:34;1.22;;;0.20;;
17741;SDS011;8993;51.822;-2.268;2023-08-06T12:59:38;1.10;;;0.27;;
17741;SDS011;8993;51.822;-2.268;2023-08-06T13:04:42;1.12;;;0.20;;
17741;SDS011;8993;51.822;-2.268;2023-08-06T13:09:47;0.49;;;0.21;;
17741;SDS011;8993;51.822;-2.268;2023-08-06T13:14:51;0.65;;;0.18;;
17741;SDS011;8993;51.822;-2.268;2023-08-06T13:19:55;0.90;;;0.21;;
17741;SDS011;8993;51.822;-2.268;2023-08-06T13:25:00;0.64;;;0.21;;
17741;SDS011;8993;51.822;-2.268;2023-08-06T13:30:05;0.97;;;0.23;;
17741;SDS011;8993;51.822;-2.268;2023-08-06T13:35:09;0.91;;;0.20;;
17741;SDS011;8993;51.822;-2.268;2023-08-06T13:40:14;0.78;;;0.19;;
17741;SDS011;8993;51.822;-2.268;2023-08-06T13:45:19;0.52;;;0.22;;
17741;SDS011;8993;51.822;-2.268;2023-08-06T13:50:23;1.12;;;0.19;;
17741;SDS011;8993;51.822;-2.268;2023-08-06T13:55:28;1.30;;;0.19;;
17741;SDS011;8993;51.822;-2.268;2023-08-06T14:00:33;1.06;;;0.20;;
17741;SDS011;8993;51.822;-2.268;2023-08-06T14:05:37;0.64;;;0.19;;
17741;SDS011;8993;51.822;-2.268;2023-08-06T14:10:42;0.47;;;0.27;;
17741;SDS011;8993;51.822;-2.268;2023-08-06T14:15:47;1.15;;;0.33;;
17741;SDS011;8993;51.822;-2.268;2023-08-06T14:20:51;0.78;;;0.31;;
17741;SDS011;8993;51.822;-2.268;2023-08-06T14:25:56;1.80;;;0.32;;
17741;SDS011;8993;51.822;-2.268;2023-08-06T14:31:00;1.00;;;0.34;;
17741;SDS011;8993;51.822;-2.268;2023-08-06T14:36:05;2.44;;;0.39;;
17741;SDS011;8993;51.822;-2.268;2023-08-06T14:41:09;1.08;;;0.34;;
17741;SDS011;8993;51.822;-2.268;2023-08-06T14:46:13;1.11;;;0.35;;
17741;SDS011;8993;51.822;-2.268;2023-08-06T14:51:18;2.38;;;0.43;;
17741;SDS011;8993;51.822;-2.268;2023-08-06T14:56:22;1.45;;;0.40;;
17741;SDS011;8993;51.822;-2.268;2023-08-06T15:01:27;0.71;;;0.25;;
17741;SDS011;8993;51.822;-2.268;2023-08-06T15:06:31;0.68;;;0.25;;
17741;SDS011;8993;51.822;-2.268;2023-08-06T15:11:36;1.03;;;0.24;;
17741;SDS011;8993;51.822;-2.268;2023-08-06T15:16:40;0.95;;;0.28;;
17741;SDS011;8993;51.822;-2.268;2023-08-06T15:21:44;0.67;;;0.27;;
17741;SDS011;8993;51.822;-2.268;2023-08-06T15:26:48;0.98;;;0.31;;
17741;SDS011;8993;51.822;-2.268;2023-08-06T15:31:53;0.55;;;0.25;;
17741;SDS011;8993;51.822;-2.268;2023-08-06T15:36:57;0.85;;;0.25;;
17741;SDS011;8993;51.822;-2.268;2023-08-06T15:42:02;1.18;;;0.33;;
17741;SDS011;8993;51.822;-2.268;2023-08-06T15:47:06;1.09;;;0.38;;
17741;SDS011;8993;51.822;-2.268;2023-08-06T15:52:10;0.79;;;0.29;;
17741;SDS011;8993;51.822;-2.268;2023-08-06T15:57:16;1.25;;;0.39;;
17741;SDS011;8993;51.822;-2.268;2023-08-06T16:02:20;0.89;;;0.25;;
17741;SDS011;8993;51.822;-2.268;2023-08-06T16:07:25;1.84;;;0.42;;
17741;SDS011;8993;51.822;-2.268;2023-08-06T16:12:30;1.73;;;0.36;;
17741;SDS011;8993;51.822;-2.268;2023-08-06T16:17:35;3.89;;;0.75;;
17741;SDS011;8993;51.822;-2.268;2023-08-06T16:22:40;2.01;;;0.66;;
17741;SDS011;8993;51.822;-2.268;2023-08-06T16:27:45;1.57;;;0.67;;
17741;SDS011;8993;51.822;-2.268;2023-08-06T16:32:50;4.08;;;0.74;;
17741;SDS011;8993;51.822;-2.268;2023-08-06T16:37:55;1.95;;;0.63;;
17741;SDS011;8993;51.822;-2.268;2023-08-06T16:43:00;1.88;;;0.71;;
17741;SDS011;8993;51.822;-2.268;2023-08-06T16:48:05;2.09;;;0.62;;
17741;SDS011;8993;51.822;-2.268;2023-08-06T16:53:10;1.83;;;0.62;;
17741;SDS011;8993;51.822;-2.268;2023-08-06T17:03:18;1.94;;;0.50;;
17741;SDS011;8993;51.822;-2.268;2023-08-06T17:13:25;1.30;;;0.46;;
17741;SDS011;8993;51.822;-2.268;2023-08-06T17:18:29;1.41;;;0.55;;
17741;SDS011;8993;51.822;-2.268;2023-08-06T17:23:33;1.91;;;0.58;;
17741;SDS011;8993;51.822;-2.268;2023-08-06T17:28:37;1.76;;;0.57;;
17741;SDS011;8993;51.822;-2.268;2023-08-06T17:33:40;1.20;;;0.44;;
17741;SDS011;8993;51.822;-2.268;2023-08-06T17:38:44;1.38;;;0.45;;
17741;SDS011;8993;51.822;-2.268;2023-08-06T17:43:49;1.69;;;0.40;;
17741;SDS011;8993;51.822;-2.268;2023-08-06T17:48:53;0.98;;;0.35;;
17741;SDS011;8993;51.822;-2.268;2023-08-06T17:53:56;1.32;;;0.38;;
17741;SDS011;8993;51.822;-2.268;2023-08-06T17:59:00;1.03;;;0.38;;
17741;SDS011;8993;51.822;-2.268;2023-08-06T18:04:04;1.56;;;0.42;;
17741;SDS011;8993;51.822;-2.268;2023-08-06T18:09:09;1.19;;;0.52;;
17741;SDS011;8993;51.822;-2.268;2023-08-06T18:14:12;0.88;;;0.30;;
17741;SDS011;8993;51.822;-2.268;2023-08-06T18:19:16;1.11;;;0.58;;
17741;SDS011;8993;51.822;-2.268;2023-08-06T18:24:20;1.14;;;0.56;;
17741;SDS011;8993;51.822;-2.268;2023-08-06T18:29:24;1.23;;;0.57;;
17741;SDS011;8993;51.822;-2.268;2023-08-06T18:34:28;1.87;;;0.59;;
17741;SDS011;8993;51.822;-2.268;2023-08-06T18:39:32;1.61;;;0.43;;
17741;SDS011;8993;51.822;-2.268;2023-08-06T18:44:36;1.15;;;0.43;;
17741;SDS011;8993;51.822;-2.268;2023-08-06T18:49:40;1.55;;;0.50;;
17741;SDS011;8993;51.822;-2.268;2023-08-06T18:54:44;1.42;;;0.46;;
17741;SDS011;8993;51.822;-2.268;2023-08-06T18:59:48;1.29;;;0.45;;
17741;SDS011;8993;51.822;-2.268;2023-08-06T19:04:53;1.68;;;0.56;;
17741;SDS011;8993;51.822;-2.268;2023-08-06T19:09:56;1.30;;;0.58;;
17741;SDS011;8993;51.822;-2.268;2023-08-06T19:15:00;2.64;;;0.68;;
17741;SDS011;8993;51.822;-2.268;2023-08-06T19:20:04;1.91;;;0.69;;
17741;SDS011;8993;51.822;-2.268;2023-08-06T19:25:08;2.28;;;0.62;;
17741;SDS011;8993;51.822;-2.268;2023-08-06T19:30:12;2.43;;;0.77;;
17741;SDS011;8993;51.822;-2.268;2023-08-06T19:35:16;2.31;;;0.72;;
17741;SDS011;8993;51.822;-2.268;2023-08-06T19:40:20;2.23;;;0.72;;
17741;SDS011;8993;51.822;-2.268;2023-08-06T19:45:24;2.42;;;0.76;;
17741;SDS011;8993;51.822;-2.268;2023-08-06T19:50:28;2.43;;;0.72;;
17741;SDS011;8993;51.822;-2.268;2023-08-06T19:55:32;2.02;;;0.83;;
17741;SDS011;8993;51.822;-2.268;2023-08-06T20:00:38;2.87;;;0.77;;
17741;SDS011;8993;51.822;-2.268;2023-08-06T20:05:40;2.52;;;0.80;;
17741;SDS011;8993;51.822;-2.268;2023-08-06T20:10:45;2.62;;;0.92;;
17741;SDS011;8993;51.822;-2.268;2023-08-06T20:15:48;2.81;;;0.96;;
17741;SDS011;8993;51.822;-2.268;2023-08-06T20:20:52;2.15;;;0.94;;
17741;SDS011;8993;51.822;-2.268;2023-08-06T20:25:57;3.42;;;0.98;;
17741;SDS011;8993;51.822;-2.268;2023-08-06T20:31:00;3.60;;;0.87;;
17741;SDS011;8993;51.822;-2.268;2023-08-06T20:36:04;3.06;;;0.97;;
17741;SDS011;8993;51.822;-2.268;2023-08-06T20:41:08;2.46;;;0.78;;
17741;SDS011;8993;51.822;-2.268;2023-08-06T20:46:12;2.34;;;0.79;;
17741;SDS011;8993;51.822;-2.268;2023-08-06T20:51:16;2.42;;;0.83;;
17741;SDS011;8993;51.822;-2.268;2023-08-06T20:56:20;2.64;;;0.87;;
17741;SDS011;8993;51.822;-2.268;2023-08-06T21:01:24;1.64;;;0.80;;
17741;SDS011;8993;51.822;-2.268;2023-08-06T21:06:28;2.99;;;0.98;;
17741;SDS011;8993;51.822;-2.268;2023-08-06T21:11:32;2.26;;;0.95;;
17741;SDS011;8993;51.822;-2.268;2023-08-06T21:16:36;2.95;;;0.97;;
17741;SDS011;8993;51.822;-2.268;2023-08-06T21:21:40;2.23;;;1.08;;
17741;SDS011;8993;51.822;-2.268;2023-08-06T21:26:44;4.25;;;1.32;;
17741;SDS011;8993;51.822;-2.268;2023-08-06T21:31:48;3.05;;;1.14;;
17741;SDS011;8993;51.822;-2.268;2023-08-06T21:36:52;2.98;;;1.23;;
17741;SDS011;8993;51.822;-2.268;2023-08-06T21:41:56;3.29;;;1.15;;
17741;SDS011;8993;51.822;-2.268;2023-08-06T21:47:00;4.15;;;1.37;;
17741;SDS011;8993;51.822;-2.268;2023-08-06T21:52:04;3.73;;;1.24;;
17741;SDS011;8993;51.822;-2.268;2023-08-06T21:57:08;2.78;;;1.14;;
17741;SDS011;8993;51.822;-2.268;2023-08-06T22:02:12;3.28;;;1.09;;
17741;SDS011;8993;51.822;-2.268;2023-08-06T22:07:16;3.48;;;1.15;;
17741;SDS011;8993;51.822;-2.268;2023-08-06T22:12:20;5.44;;;1.55;;
17741;SDS011;8993;51.822;-2.268;2023-08-06T22:17:24;4.70;;;1.41;;
17741;SDS011;8993;51.822;-2.268;2023-08-06T22:22:28;5.74;;;1.42;;
17741;SDS011;8993;51.822;-2.268;2023-08-06T22:27:32;3.99;;;1.56;;
17741;SDS011;8993;51.822;-2.268;2023-08-06T22:32:36;3.13;;;1.48;;
17741;SDS011;8993;51.822;-2.268;2023-08-06T22:37:39;5.88;;;1.98;;
17741;SDS011;8993;51.822;-2.268;2023-08-06T22:42:44;4.20;;;1.55;;
17741;SDS011;8993;51.822;-2.268;2023-08-06T22:47:48;5.28;;;1.99;;
17741;SDS011;8993;51.822;-2.268;2023-08-06T22:52:51;4.12;;;1.79;;
17741;SDS011;8993;51.822;-2.268;2023-08-06T22:57:55;5.72;;;1.76;;
17741;SDS011;8993;51.822;-2.268;2023-08-06T23:02:59;4.89;;;1.54;;
17741;SDS011;8993;51.822;-2.268;2023-08-06T23:08:03;5.30;;;2.19;;
17741;SDS011;8993;51.822;-2.268;2023-08-06T23:13:07;5.45;;;2.29;;
17741;SDS011;8993;51.822;-2.268;2023-08-06T23:18:11;5.11;;;2.01;;
17741;SDS011;8993;51.822;-2.268;2023-08-06T23:23:15;2.90;;;1.38;;
17741;SDS011;8993;51.822;-2.268;2023-08-06T23:28:19;3.99;;;1.72;;
17741;SDS011;8993;51.822;-2.268;2023-08-06T23:33:23;5.61;;;1.73;;
17741;SDS011;8993;51.822;-2.268;2023-08-06T23:38:27;3.64;;;1.38;;
17741;SDS011;8993;51.822;-2.268;2023-08-06T23:43:31;2.50;;;1.21;;
17741;SDS011;8993;51.822;-2.268;2023-08-06T23:48:35;5.35;;;1.35;;
17741;SDS011;8993;51.822;-2.268;2023-08-06T23:53:39;3.17;;;1.12;;
17741;SDS011;8993;51.822;-2.268;2023-08-06T23:58:43;3.75;;;1.47;;
